Amo, Colorado
Current Conditions -  °F | °C
As of 10:13 PM on Friday 24 Oct 2014 (Local Time) from KFLY Reporting Station
Clear Clear  
Wind Chill: 10°   Ceiling: Unl
Heat Index: 10°   Visibility: 10mi
Dew Point: -5°   Wind: 8mph
Humidity: 35%   Direction: 280°W
Pressure: 30.32"   Gusts: NA
Location:  39.0051°N, 104.503°W
Report Text: KFLY 250413Z AUTO 28007KT 10SM CLR 10/M04 A3032 RMK AO2 T01041045
Loading
Personal Weather Stations






























Interactive Weather Map
Tropical Storm Tracking
New forecast layout! Learn more

10-Day Weather Forecast

Advertisements
Track Severe Weather on mobile